createdAt,value
2019-01-11T00:07:14.378Z,7.27
2019-01-11T00:12:16.445Z,10.20
2019-01-11T00:17:18.807Z,10.73
2019-01-11T00:19:47.178Z,7.47
2019-01-11T00:22:15.578Z,7.37
2019-01-11T00:24:43.981Z,10.23
2019-01-11T00:27:12.421Z,9.27
2019-01-11T00:29:40.827Z,8.53
2019-01-11T00:32:09.228Z,10.93
2019-01-11T00:37:12.135Z,8.43
2019-01-11T00:39:40.563Z,19.83
2019-01-11T00:42:08.957Z,13.50
2019-01-11T00:44:37.360Z,12.10
2019-01-11T00:47:45.808Z,11.70
2019-01-11T00:50:33.467Z,11.37
2019-01-11T00:53:01.896Z,12.13
2019-01-11T00:55:30.295Z,10.00
2019-01-11T00:57:58.693Z,9.87
2019-01-11T01:00:27.175Z,9.20
2019-01-11T01:02:55.573Z,10.70
2019-01-11T01:05:23.991Z,9.60
2019-01-11T01:08:11.743Z,11.53
2019-01-11T01:11:20.091Z,12.73
2019-01-11T01:13:48.517Z,13.50
2019-01-11T01:16:16.990Z,12.13
2019-01-11T01:18:45.415Z,10.43
2019-01-11T01:21:33.080Z,10.23
2019-01-11T01:24:01.541Z,8.60
2019-01-11T01:26:29.940Z,8.53
2019-01-11T01:28:58.378Z,8.53
2019-01-11T01:31:26.862Z,7.20
2019-01-11T01:33:55.263Z,7.80
2019-01-11T01:36:23.759Z,8.07
2019-01-11T01:38:52.153Z,8.63
2019-01-11T01:41:20.552Z,8.73
2019-01-11T01:43:48.964Z,9.00
2019-01-11T01:46:17.364Z,8.93
2019-01-11T01:48:45.786Z,8.47
2019-01-11T01:53:47.880Z,6.37
2019-01-11T01:56:16.344Z,7.70
2019-01-11T02:01:18.720Z,9.37
2019-01-11T02:04:06.418Z,9.07
2019-01-11T02:06:34.812Z,9.13
2019-01-11T02:09:34.398Z,9.93
2019-01-11T02:11:52.764Z,8.73
2019-01-11T02:20:33.063Z,7.37
2019-01-11T02:26:28.981Z,6.37
2019-01-11T02:28:57.370Z,5.93
2019-01-11T02:39:48.876Z,5.70
2019-01-11T02:42:17.348Z,4.97
2019-01-11T02:44:45.746Z,6.40
2019-01-11T02:47:14.170Z,7.47
2019-01-11T02:55:26.007Z,4.30
2019-01-11T02:57:54.412Z,5.83
2019-01-11T03:00:22.802Z,4.10
2019-01-11T03:06:05.073Z,5.43
2019-01-11T03:08:33.521Z,5.83
2019-01-11T03:11:01.918Z,4.73
2019-01-11T03:16:17.848Z,4.30
2019-01-11T03:24:09.637Z,4.50
2019-01-11T03:29:11.978Z,4.00
2019-01-11T03:31:40.474Z,4.73
2019-01-11T03:34:08.867Z,4.07
2019-01-11T03:36:37.258Z,5.67
2019-01-11T03:39:45.769Z,4.30
2019-01-11T03:42:33.491Z,4.37
2019-01-11T03:47:35.937Z,4.73
2019-01-11T03:50:44.369Z,5.03
2019-01-11T03:53:12.762Z,4.50
2019-01-11T03:55:41.154Z,6.03
2019-01-11T03:58:49.535Z,9.43
2019-01-11T04:01:17.931Z,10.57
2019-01-11T04:03:46.323Z,6.87
2019-01-11T04:06:34.153Z,9.47
2019-01-11T04:11:51.641Z,6.70
2019-01-11T04:14:20.043Z,12.33
2019-01-11T04:16:48.511Z,9.37
2019-01-11T04:27:17.120Z,7.87
2019-01-11T04:29:35.529Z,8.23
2019-01-11T04:32:03.989Z,12.63
2019-01-11T04:34:32.540Z,5.87
2019-01-11T04:37:00.939Z,9.07
2019-01-11T04:39:29.333Z,10.27
2019-01-11T04:41:57.757Z,5.07
2019-01-11T04:44:26.159Z,11.20
2019-01-11T04:46:54.554Z,7.90
2019-01-11T04:51:56.857Z,7.03
2019-01-11T04:54:25.250Z,8.70
2019-01-11T04:56:53.670Z,5.00
2019-01-11T04:59:22.086Z,9.47
2019-01-11T05:01:50.550Z,11.43
2019-01-11T05:04:19.089Z,7.23
2019-01-11T05:07:06.738Z,8.37
2019-01-11T05:09:35.173Z,11.90
2019-01-11T05:12:03.575Z,6.00
2019-01-11T05:14:31.973Z,4.90
2019-01-11T05:19:34.329Z,5.63
2019-01-11T05:24:36.748Z,7.07
2019-01-11T05:27:05.146Z,5.27
2019-01-11T05:29:52.884Z,7.73
2019-01-11T05:32:21.278Z,6.93
2019-01-11T05:34:49.683Z,5.73
2019-01-11T05:37:18.246Z,6.47
2019-01-11T05:39:46.649Z,12.30
2019-01-11T05:42:15.043Z,6.63
2019-01-11T05:44:43.492Z,5.53
2019-01-11T05:47:11.884Z,5.83
2019-01-11T05:49:40.282Z,5.27
2019-01-11T05:52:08.860Z,8.20
2019-01-11T05:54:37.254Z,9.83
2019-01-11T05:57:05.659Z,10.27
2019-01-11T05:59:34.078Z,6.77
2019-01-11T06:02:02.478Z,12.00
2019-01-11T06:04:50.042Z,11.30
2019-01-11T06:07:37.634Z,19.77
2019-01-11T06:10:45.987Z,8.57
2019-01-11T06:13:14.385Z,9.87
2019-01-11T06:15:42.791Z,13.93
2019-01-11T06:20:45.664Z,8.33
2019-01-11T06:25:48.097Z,5.87
2019-01-11T06:28:16.555Z,7.50
2019-01-11T06:30:44.966Z,13.57
2019-01-11T06:33:13.438Z,11.20
2019-01-11T06:35:41.861Z,11.27
2019-01-11T06:38:10.253Z,9.13
2019-01-11T06:40:38.648Z,9.73
2019-01-11T06:43:07.222Z,10.43
2019-01-11T06:45:35.611Z,9.43
2019-01-11T06:50:36.450Z,7.93
2019-01-11T06:53:02.973Z,12.17
2019-01-11T06:55:31.366Z,17.67
2019-01-11T06:57:59.840Z,11.73
2019-01-11T07:00:28.261Z,11.33
2019-01-11T07:02:56.664Z,15.27
2019-01-11T07:05:25.087Z,12.67
2019-01-11T07:07:53.499Z,17.93
2019-01-11T07:11:01.870Z,12.70
2019-01-11T07:13:30.260Z,9.30
2019-01-11T07:15:58.725Z,8.40
2019-01-11T07:21:00.628Z,10.37
2019-01-11T07:23:29.023Z,8.03
2019-01-11T07:25:57.433Z,9.57
2019-01-11T07:28:25.835Z,9.97
2019-01-11T07:31:13.398Z,10.63
2019-01-11T07:33:41.855Z,15.33
2019-01-11T07:36:29.484Z,14.77
2019-01-11T07:38:57.931Z,21.77
2019-01-11T07:41:26.372Z,24.83
2019-01-11T07:43:54.791Z,19.50
2019-01-11T07:46:23.344Z,12.10
2019-01-11T07:48:51.746Z,21.57
2019-01-11T07:51:20.159Z,15.70
2019-01-11T07:53:48.556Z,27.40
2019-01-11T07:56:16.953Z,23.73
2019-01-11T07:58:45.388Z,23.90
2019-01-11T08:01:13.848Z,12.70
2019-01-11T08:03:42.259Z,11.93
2019-01-11T08:06:10.759Z,9.27
2019-01-11T08:08:40.074Z,14.10
2019-01-11T08:11:08.538Z,11.63
2019-01-11T08:13:36.963Z,12.77
2019-01-11T08:16:05.430Z,9.53
2019-01-11T08:18:33.895Z,8.53
2019-01-11T08:21:02.330Z,12.13
2019-01-11T08:23:30.812Z,8.50
2019-01-11T08:25:59.222Z,8.37
2019-01-11T08:31:06.642Z,10.57
2019-01-11T08:33:35.116Z,16.47
2019-01-11T08:38:58.187Z,10.30
2019-01-11T08:41:26.598Z,15.90
2019-01-11T08:43:54.997Z,9.90
2019-01-11T08:46:23.506Z,8.47
2019-01-11T08:48:52.002Z,108.63
2019-01-11T08:51:20.563Z,170.13
2019-01-11T08:53:48.988Z,48.60
2019-01-11T08:56:17.463Z,24.30
2019-01-11T09:01:34.974Z,21.80
2019-01-11T09:04:03.377Z,19.73
2019-01-11T09:09:26.604Z,30.70
2019-01-11T09:11:55.003Z,23.90
2019-01-11T09:17:12.571Z,21.50
2019-01-11T09:19:40.960Z,19.93
2019-01-11T09:22:09.361Z,12.53
2019-01-11T09:27:11.789Z,16.30
2019-01-11T09:29:40.260Z,14.60
2019-01-11T09:34:42.828Z,12.60
2019-01-11T09:37:11.227Z,21.70
2019-01-11T09:39:39.655Z,26.70
2019-01-11T09:42:08.155Z,8.70
2019-01-11T09:44:36.550Z,35.17
2019-01-11T09:47:44.915Z,23.37
2019-01-11T09:50:13.459Z,15.80
2019-01-11T09:52:41.923Z,11.40
2019-01-11T09:58:04.857Z,13.37
2019-01-11T10:00:33.397Z,11.70
2019-01-11T10:05:50.976Z,16.50
2019-01-11T10:08:19.376Z,16.50
2019-01-11T10:10:47.779Z,13.70
2019-01-11T10:13:16.276Z,7.70
2019-01-11T10:15:44.681Z,7.97
2019-01-11T10:18:13.083Z,6.60
2019-01-11T10:20:41.503Z,8.07
2019-01-11T10:23:09.903Z,7.07
2019-01-11T10:25:38.297Z,6.77
2019-01-11T10:28:06.799Z,8.50
2019-01-11T10:30:35.196Z,6.83
2019-01-11T10:33:03.660Z,6.73
2019-01-11T10:35:32.074Z,7.37
2019-01-11T10:38:00.465Z,4.53
2019-01-11T10:40:28.933Z,4.20
2019-01-11T10:45:31.841Z,4.70
2019-01-11T10:48:00.404Z,4.13
2019-01-11T10:50:28.801Z,4.67
2019-01-11T10:52:57.368Z,4.50
2019-01-11T10:55:25.777Z,4.30
2019-01-11T10:57:54.239Z,6.07
2019-01-11T11:01:02.677Z,5.33
2019-01-11T11:03:31.109Z,4.77
2019-01-11T11:05:59.627Z,6.23
2019-01-11T11:08:28.079Z,14.23
2019-01-11T11:10:56.469Z,5.80
2019-01-11T11:13:24.873Z,6.10
2019-01-11T11:21:02.908Z,6.20
2019-01-11T11:23:31.413Z,7.77
2019-01-11T11:25:59.820Z,8.60
2019-01-11T11:28:28.210Z,9.37
2019-01-11T11:33:32.369Z,7.20
2019-01-11T11:36:00.769Z,10.27
2019-01-11T11:38:29.165Z,10.40
2019-01-11T11:43:31.508Z,8.07
2019-01-11T11:45:59.913Z,8.20
2019-01-11T11:48:28.327Z,4.83
2019-01-11T11:50:56.832Z,5.67
2019-01-11T11:53:25.298Z,8.70
2019-01-11T11:55:53.709Z,5.53
2019-01-11T11:58:22.117Z,6.53
2019-01-11T12:00:50.510Z,4.10
2019-01-11T12:03:18.905Z,6.73
2019-01-11T12:05:47.405Z,3.80
2019-01-11T12:08:15.868Z,5.77
2019-01-11T12:10:44.267Z,4.27
2019-01-11T12:13:12.710Z,5.30
2019-01-11T12:15:41.101Z,6.37
2019-01-11T12:18:09.497Z,4.90
2019-01-11T12:23:32.532Z,4.37
2019-01-11T12:28:50.103Z,3.40
2019-01-11T12:31:18.497Z,3.63
2019-01-11T12:33:46.890Z,3.57
2019-01-11T12:36:15.376Z,6.40
2019-01-11T12:38:43.837Z,6.03
2019-01-11T12:41:12.230Z,5.90
2019-01-11T12:43:40.646Z,8.40
2019-01-11T12:46:09.036Z,10.47
2019-01-11T12:48:37.427Z,4.27
2019-01-11T12:51:05.999Z,4.70
2019-01-11T12:53:34.383Z,4.50
2019-01-11T12:56:02.789Z,4.50
2019-01-11T13:01:45.483Z,5.70
2019-01-11T13:04:14.010Z,5.60
2019-01-11T13:06:42.401Z,4.63
2019-01-11T13:09:30.139Z,4.93
2019-01-11T13:11:58.531Z,5.53
2019-01-11T13:14:26.923Z,4.20
2019-01-11T13:19:29.052Z,5.03
2019-01-11T13:22:00.694Z,4.60
2019-01-11T13:24:27.583Z,7.00
2019-01-11T13:26:55.979Z,4.90
2019-01-11T13:29:24.400Z,7.03
2019-01-11T13:31:52.787Z,6.53
2019-01-11T13:34:21.184Z,5.03
2019-01-11T13:36:53.927Z,5.27
2019-01-11T13:39:19.792Z,53.13
2019-01-11T13:42:07.509Z,33.33
2019-01-11T13:44:35.915Z,40.93
2019-01-11T13:49:59.323Z,4.20
2019-01-11T13:52:27.720Z,5.73
2019-01-11T13:54:56.107Z,4.83
2019-01-11T13:57:24.539Z,8.37
2019-01-11T13:59:52.937Z,5.80
2019-01-11T14:07:49.989Z,7.83
2019-01-11T14:10:18.436Z,7.10
2019-01-11T14:12:46.829Z,4.70
2019-01-11T14:15:22.665Z,4.27
2019-01-11T14:18:10.416Z,4.30
2019-01-11T14:20:38.806Z,4.33
2019-01-11T14:23:07.343Z,5.10
2019-01-11T14:25:35.771Z,5.93
2019-01-11T14:28:44.117Z,6.30
2019-01-11T14:31:12.565Z,6.00
2019-01-11T14:33:40.959Z,6.07
2019-01-11T14:36:09.445Z,7.07
2019-01-11T14:38:37.868Z,5.80
2019-01-11T14:41:06.258Z,5.00
2019-01-11T14:43:34.642Z,7.37
2019-01-11T14:46:03.152Z,7.77
2019-01-11T14:48:31.560Z,6.07
2019-01-11T14:50:59.956Z,8.23
2019-01-11T14:53:28.395Z,6.73
2019-01-11T14:55:56.826Z,19.00
2019-01-11T14:58:28.682Z,6.50
2019-01-11T15:00:55.386Z,8.93
2019-01-11T15:03:23.786Z,5.93
2019-01-11T15:05:52.193Z,12.17
2019-01-11T15:10:54.841Z,7.27
2019-01-11T15:13:23.226Z,6.53
2019-01-11T15:15:51.673Z,8.23
2019-01-11T15:18:20.065Z,8.13
2019-01-11T15:20:48.466Z,8.93
2019-01-11T15:25:51.075Z,10.63
2019-01-11T15:28:19.623Z,9.13
2019-01-11T15:30:48.200Z,10.33
2019-01-11T15:33:16.589Z,8.43
2019-01-11T15:35:45.013Z,10.43
2019-01-11T15:38:13.481Z,10.50
2019-01-11T15:40:41.948Z,10.83
2019-01-11T15:43:10.370Z,12.47
2019-01-11T15:45:38.769Z,17.17
2019-01-11T15:48:26.498Z,24.57
2019-01-11T15:51:14.229Z,61.93
2019-01-11T15:53:42.701Z,20.07
2019-01-11T15:56:11.215Z,57.03
2019-01-11T15:58:39.753Z,48.63
2019-01-11T16:01:08.289Z,16.40
2019-01-11T16:03:36.642Z,14.37
2019-01-11T16:06:45.086Z,16.40
2019-01-11T16:09:53.418Z,15.97
2019-01-11T16:15:34.286Z,11.00
2019-01-11T16:18:42.641Z,13.30
2019-01-11T16:21:23.793Z,17.17
2019-01-11T16:23:52.311Z,16.13
2019-01-11T16:26:20.942Z,15.57
2019-01-11T16:28:49.352Z,15.67
2019-01-11T16:31:17.903Z,13.00
2019-01-11T16:33:46.297Z,13.17
2019-01-11T16:36:14.700Z,13.43
2019-01-11T16:38:43.127Z,12.63
2019-01-11T16:41:11.543Z,14.37
2019-01-11T16:43:39.950Z,12.90
2019-01-11T16:46:08.447Z,13.20
2019-01-11T16:48:36.885Z,14.23
2019-01-11T16:51:05.684Z,19.77
2019-01-11T16:53:35.553Z,17.80
2019-01-11T16:59:12.098Z,12.20
2019-01-11T17:01:40.447Z,12.40
2019-01-11T17:04:08.853Z,13.27
2019-01-11T17:06:37.360Z,14.77
2019-01-11T17:09:45.672Z,11.30
2019-01-11T17:12:14.191Z,13.87
2019-01-11T17:14:42.597Z,16.97
2019-01-11T17:17:10.995Z,15.10
2019-01-11T17:19:39.464Z,10.57
2019-01-11T17:22:07.865Z,15.90
2019-01-11T17:24:36.279Z,12.73
2019-01-11T17:27:04.885Z,12.33
2019-01-11T17:29:33.278Z,15.00
2019-01-11T17:32:01.697Z,13.93
2019-01-11T17:34:30.207Z,12.17
2019-01-11T17:37:17.947Z,13.20
2019-01-11T17:39:46.449Z,13.07
2019-01-11T17:42:14.811Z,10.60
2019-01-11T17:44:43.211Z,11.33
2019-01-11T17:49:45.896Z,11.20
2019-01-11T17:52:14.323Z,10.73
2019-01-11T17:54:42.719Z,10.43
2019-01-11T17:57:11.137Z,11.50
2019-01-11T17:59:39.574Z,11.67
2019-01-11T18:02:07.975Z,14.97
2019-01-11T18:04:36.386Z,11.73
2019-01-11T18:07:05.137Z,13.37
2019-01-11T18:09:33.540Z,11.20
2019-01-11T18:12:01.939Z,11.40
2019-01-11T18:14:30.371Z,10.37
2019-01-11T18:16:58.851Z,11.73
2019-01-11T18:19:27.261Z,10.23
2019-01-11T18:21:55.689Z,16.07
2019-01-11T18:24:24.110Z,18.67
2019-01-11T18:26:52.519Z,18.30
2019-01-11T18:29:20.951Z,12.03
2019-01-11T18:31:49.351Z,12.93
2019-01-11T18:34:17.744Z,11.80
2019-01-11T18:36:46.181Z,12.57
2019-01-11T18:39:14.580Z,16.60
2019-01-11T18:41:42.985Z,23.30
2019-01-11T18:44:51.390Z,23.87
2019-01-11T18:47:19.799Z,19.57
2019-01-11T18:49:49.249Z,22.13
2019-01-11T18:52:18.836Z,16.93
2019-01-11T18:54:47.243Z,13.77
2019-01-11T18:57:15.678Z,35.60
2019-01-11T19:02:17.957Z,11.23
2019-01-11T19:04:46.435Z,15.63
2019-01-11T19:07:16.526Z,10.60
2019-01-11T19:15:53.606Z,11.03
2019-01-11T19:18:22.121Z,13.17
2019-01-11T19:20:50.592Z,13.03
2019-01-11T19:23:20.561Z,11.23
2019-01-11T19:25:49.182Z,10.90
2019-01-11T19:28:17.601Z,13.77
2019-01-11T19:30:46.006Z,12.23
2019-01-11T19:33:14.523Z,14.77
2019-01-11T19:35:43.093Z,11.90
2019-01-11T19:38:11.501Z,9.13
2019-01-11T19:40:39.992Z,13.13
2019-01-11T19:43:08.412Z,11.50
2019-01-11T19:45:36.810Z,12.33
2019-01-11T19:48:05.343Z,11.17
2019-01-11T19:50:33.696Z,9.30
2019-01-11T19:53:02.163Z,8.50
2019-01-11T19:58:24.846Z,9.07
2019-01-11T20:00:53.290Z,10.87
2019-01-11T20:03:21.783Z,8.63
2019-01-11T20:05:50.395Z,14.10
2019-01-11T20:08:58.714Z,31.10
2019-01-11T20:11:27.156Z,7.30
2019-01-11T20:13:55.552Z,8.30
2019-01-11T20:16:23.956Z,9.30
2019-01-11T20:18:52.391Z,6.90
2019-01-11T20:21:20.789Z,8.37
2019-01-11T20:23:49.190Z,8.40
2019-01-11T20:26:17.613Z,8.87
2019-01-11T20:28:46.012Z,7.40
2019-01-11T20:31:14.415Z,6.87
2019-01-11T20:33:42.830Z,7.47
2019-01-11T20:36:11.235Z,15.40
2019-01-11T20:38:39.633Z,7.53
2019-01-11T20:41:08.073Z,8.97
2019-01-11T20:43:37.522Z,8.40
2019-01-11T20:46:06.725Z,6.17
2019-01-11T20:48:35.225Z,5.93
2019-01-11T20:51:03.693Z,8.77
2019-01-11T20:53:32.164Z,6.43
2019-01-11T20:56:00.601Z,5.60
2019-01-11T20:58:28.989Z,5.60
2019-01-11T21:00:57.381Z,5.43
2019-01-11T21:03:25.818Z,6.27
2019-01-11T21:05:54.287Z,5.07
2019-01-11T21:08:22.691Z,4.30
2019-01-11T21:10:51.160Z,5.60
2019-01-11T21:13:19.574Z,5.17
2019-01-11T21:15:47.977Z,4.80
2019-01-11T21:18:16.454Z,6.33
2019-01-11T21:20:44.881Z,5.27
2019-01-11T21:23:13.317Z,5.00
2019-01-11T21:28:15.881Z,4.63
2019-01-11T21:30:44.281Z,5.73
2019-01-11T21:35:47.133Z,4.53
2019-01-11T21:38:15.634Z,6.90
2019-01-11T21:40:44.030Z,5.10
2019-01-11T21:43:12.429Z,4.80
2019-01-11T21:45:40.953Z,5.20
2019-01-11T21:48:09.432Z,4.30
2019-01-11T21:50:37.902Z,4.30
2019-01-11T21:53:46.250Z,4.87
2019-01-11T21:56:14.645Z,6.63
2019-01-11T21:58:43.048Z,4.47
2019-01-11T22:01:11.466Z,4.67
2019-01-11T22:03:39.867Z,4.53
2019-01-11T22:06:08.269Z,4.40
2019-01-11T22:08:36.759Z,4.73
2019-01-11T22:11:05.247Z,4.10
2019-01-11T22:13:33.641Z,5.13
2019-01-11T22:18:56.601Z,4.40
2019-01-11T22:21:24.997Z,5.20
2019-01-11T22:23:53.399Z,4.47
2019-01-11T22:26:21.852Z,4.27
2019-01-11T22:28:50.245Z,4.27
2019-01-11T22:31:18.645Z,4.23
2019-01-11T22:33:47.127Z,4.40
2019-01-11T22:36:15.603Z,5.03
2019-01-11T22:38:43.994Z,4.90
2019-01-11T22:41:12.425Z,4.77
2019-01-11T22:43:40.826Z,5.10
2019-01-11T22:46:09.221Z,4.17
2019-01-11T22:48:37.644Z,4.57
2019-01-11T22:51:06.044Z,7.80
2019-01-11T22:53:34.440Z,5.20
2019-01-11T22:56:02.862Z,3.70
2019-01-11T22:58:31.261Z,4.07
2019-01-11T23:01:39.694Z,5.10
2019-01-11T23:04:08.100Z,4.00
2019-01-11T23:07:15.173Z,3.77
2019-01-11T23:10:23.493Z,6.80
2019-01-11T23:13:31.911Z,5.17
2019-01-11T23:16:40.265Z,3.77
2019-01-11T23:21:43.248Z,6.07
2019-01-11T23:24:17.315Z,5.70
2019-01-11T23:26:41.875Z,4.03
2019-01-11T23:29:10.270Z,6.67
2019-01-11T23:31:38.764Z,3.57
2019-01-11T23:34:07.181Z,7.67
2019-01-11T23:36:35.577Z,4.03
2019-01-11T23:44:32.336Z,6.57
2019-01-11T23:47:00.839Z,4.17
2019-01-11T23:49:29.229Z,6.17
2019-01-11T23:51:57.702Z,4.50
2019-01-11T23:54:26.134Z,6.73
2019-01-11T23:56:54.597Z,5.30
2019-01-11T23:59:22.998Z,4.70
